sensor_id;sensor_type;location;lat;lon;timestamp;P1;durP1;ratioP1;P2;durP2;ratioP2
31660;SDS011;18267;52.234;7.444;2023-03-13T00:01:24;21.77;;;3.42;;
31660;SDS011;18267;52.234;7.444;2023-03-13T00:03:51;19.15;;;3.70;;
31660;SDS011;18267;52.234;7.444;2023-03-13T00:06:19;26.10;;;3.08;;
31660;SDS011;18267;52.234;7.444;2023-03-13T00:08:46;23.70;;;3.10;;
31660;SDS011;18267;52.234;7.444;2023-03-13T00:11:13;24.42;;;3.35;;
31660;SDS011;18267;52.234;7.444;2023-03-13T00:13:39;25.08;;;2.95;;
31660;SDS011;18267;52.234;7.444;2023-03-13T00:16:10;20.88;;;2.60;;
31660;SDS011;18267;52.234;7.444;2023-03-13T00:18:37;14.15;;;2.50;;
31660;SDS011;18267;52.234;7.444;2023-03-13T00:21:04;13.32;;;2.17;;
31660;SDS011;18267;52.234;7.444;2023-03-13T00:23:34;18.58;;;2.08;;
31660;SDS011;18267;52.234;7.444;2023-03-13T00:26:02;16.63;;;3.38;;
31660;SDS011;18267;52.234;7.444;2023-03-13T00:28:31;19.90;;;2.13;;
31660;SDS011;18267;52.234;7.444;2023-03-13T00:31:08;14.57;;;3.38;;
31660;SDS011;18267;52.234;7.444;2023-03-13T00:33:35;22.50;;;2.90;;
31660;SDS011;18267;52.234;7.444;2023-03-13T00:36:03;14.13;;;2.28;;
31660;SDS011;18267;52.234;7.444;2023-03-13T00:38:32;11.75;;;2.75;;
31660;SDS011;18267;52.234;7.444;2023-03-13T00:41:04;19.25;;;3.25;;
31660;SDS011;18267;52.234;7.444;2023-03-13T00:43:29;21.05;;;2.80;;
31660;SDS011;18267;52.234;7.444;2023-03-13T00:45:56;21.55;;;2.83;;
31660;SDS011;18267;52.234;7.444;2023-03-13T00:48:22;24.63;;;2.42;;
31660;SDS011;18267;52.234;7.444;2023-03-13T00:50:48;17.45;;;2.40;;
31660;SDS011;18267;52.234;7.444;2023-03-13T00:53:14;16.13;;;2.95;;
31660;SDS011;18267;52.234;7.444;2023-03-13T00:55:49;12.10;;;2.20;;
31660;SDS011;18267;52.234;7.444;2023-03-13T00:58:25;17.90;;;2.50;;
31660;SDS011;18267;52.234;7.444;2023-03-13T01:00:52;11.70;;;2.65;;
31660;SDS011;18267;52.234;7.444;2023-03-13T01:03:19;14.32;;;2.60;;
31660;SDS011;18267;52.234;7.444;2023-03-13T01:05:56;19.38;;;2.67;;
31660;SDS011;18267;52.234;7.444;2023-03-13T01:08:22;14.20;;;3.05;;
31660;SDS011;18267;52.234;7.444;2023-03-13T01:10:48;11.38;;;2.20;;
31660;SDS011;18267;52.234;7.444;2023-03-13T01:13:13;18.25;;;2.47;;
31660;SDS011;18267;52.234;7.444;2023-03-13T01:15:39;23.25;;;2.58;;
31660;SDS011;18267;52.234;7.444;2023-03-13T01:18:04;17.65;;;2.30;;
31660;SDS011;18267;52.234;7.444;2023-03-13T01:20:30;16.75;;;2.03;;
31660;SDS011;18267;52.234;7.444;2023-03-13T01:22:56;29.92;;;2.90;;
31660;SDS011;18267;52.234;7.444;2023-03-13T01:25:21;28.25;;;2.83;;
31660;SDS011;18267;52.234;7.444;2023-03-13T01:27:47;21.10;;;4.25;;
31660;SDS011;18267;52.234;7.444;2023-03-13T01:30:12;18.83;;;3.53;;
31660;SDS011;18267;52.234;7.444;2023-03-13T01:32:38;9.60;;;2.45;;
31660;SDS011;18267;52.234;7.444;2023-03-13T01:35:03;18.15;;;2.88;;
31660;SDS011;18267;52.234;7.444;2023-03-13T01:37:29;14.50;;;2.75;;
31660;SDS011;18267;52.234;7.444;2023-03-13T01:39:55;15.85;;;3.00;;
31660;SDS011;18267;52.234;7.444;2023-03-13T01:42:20;26.98;;;3.00;;
31660;SDS011;18267;52.234;7.444;2023-03-13T01:44:53;17.50;;;2.78;;
31660;SDS011;18267;52.234;7.444;2023-03-13T01:47:20;25.13;;;2.90;;
31660;SDS011;18267;52.234;7.444;2023-03-13T01:49:45;17.48;;;2.42;;
31660;SDS011;18267;52.234;7.444;2023-03-13T01:52:14;18.45;;;2.58;;
31660;SDS011;18267;52.234;7.444;2023-03-13T01:54:54;23.17;;;3.38;;
31660;SDS011;18267;52.234;7.444;2023-03-13T01:57:34;18.05;;;2.15;;
31660;SDS011;18267;52.234;7.444;2023-03-13T02:00:07;22.42;;;3.15;;
31660;SDS011;18267;52.234;7.444;2023-03-13T02:02:47;12.90;;;2.90;;
31660;SDS011;18267;52.234;7.444;2023-03-13T02:05:16;29.52;;;4.03;;
31660;SDS011;18267;52.234;7.444;2023-03-13T02:07:45;15.80;;;2.83;;
31660;SDS011;18267;52.234;7.444;2023-03-13T02:10:17;16.25;;;3.42;;
31660;SDS011;18267;52.234;7.444;2023-03-13T02:12:46;21.20;;;4.15;;
31660;SDS011;18267;52.234;7.444;2023-03-13T02:15:14;19.60;;;2.28;;
31660;SDS011;18267;52.234;7.444;2023-03-13T02:17:42;18.30;;;3.28;;
31660;SDS011;18267;52.234;7.444;2023-03-13T02:20:10;12.45;;;2.30;;
31660;SDS011;18267;52.234;7.444;2023-03-13T02:28:34;14.48;;;2.80;;
31660;SDS011;18267;52.234;7.444;2023-03-13T02:30:41;17.42;;;2.70;;
31660;SDS011;18267;52.234;7.444;2023-03-13T02:33:07;15.50;;;1.88;;
31660;SDS011;18267;52.234;7.444;2023-03-13T02:35:33;24.40;;;2.80;;
31660;SDS011;18267;52.234;7.444;2023-03-13T02:38:01;18.20;;;3.15;;
31660;SDS011;18267;52.234;7.444;2023-03-13T02:40:30;13.27;;;2.85;;
31660;SDS011;18267;52.234;7.444;2023-03-13T02:43:01;19.73;;;3.65;;
31660;SDS011;18267;52.234;7.444;2023-03-13T02:45:31;11.32;;;2.83;;
31660;SDS011;18267;52.234;7.444;2023-03-13T02:47:56;23.75;;;3.08;;
31660;SDS011;18267;52.234;7.444;2023-03-13T02:50:22;16.60;;;2.45;;
31660;SDS011;18267;52.234;7.444;2023-03-13T02:52:59;15.07;;;2.88;;
31660;SDS011;18267;52.234;7.444;2023-03-13T02:55:29;10.15;;;3.10;;
31660;SDS011;18267;52.234;7.444;2023-03-13T02:57:57;15.90;;;3.00;;
31660;SDS011;18267;52.234;7.444;2023-03-13T03:00:22;19.17;;;3.05;;
31660;SDS011;18267;52.234;7.444;2023-03-13T03:02:51;11.63;;;3.35;;
31660;SDS011;18267;52.234;7.444;2023-03-13T03:05:18;17.92;;;4.20;;
31660;SDS011;18267;52.234;7.444;2023-03-13T03:07:43;15.85;;;4.28;;
31660;SDS011;18267;52.234;7.444;2023-03-13T03:10:09;21.15;;;4.18;;
31660;SDS011;18267;52.234;7.444;2023-03-13T03:12:35;11.23;;;3.55;;
31660;SDS011;18267;52.234;7.444;2023-03-13T03:15:01;18.92;;;4.10;;
31660;SDS011;18267;52.234;7.444;2023-03-13T03:17:28;13.90;;;4.30;;
31660;SDS011;18267;52.234;7.444;2023-03-13T03:19:55;12.93;;;4.00;;
31660;SDS011;18267;52.234;7.444;2023-03-13T03:22:21;13.32;;;4.68;;
31660;SDS011;18267;52.234;7.444;2023-03-13T03:24:47;16.65;;;4.57;;
31660;SDS011;18267;52.234;7.444;2023-03-13T03:27:12;16.05;;;4.63;;
31660;SDS011;18267;52.234;7.444;2023-03-13T03:29:38;13.27;;;4.45;;
31660;SDS011;18267;52.234;7.444;2023-03-13T03:32:04;14.13;;;4.82;;
31660;SDS011;18267;52.234;7.444;2023-03-13T03:34:29;10.85;;;4.38;;
31660;SDS011;18267;52.234;7.444;2023-03-13T03:36:55;13.07;;;4.43;;
31660;SDS011;18267;52.234;7.444;2023-03-13T03:39:21;10.82;;;4.65;;
31660;SDS011;18267;52.234;7.444;2023-03-13T03:41:46;7.38;;;4.50;;
31660;SDS011;18267;52.234;7.444;2023-03-13T03:44:12;12.77;;;4.22;;
31660;SDS011;18267;52.234;7.444;2023-03-13T03:46:37;17.00;;;6.10;;
31660;SDS011;18267;52.234;7.444;2023-03-13T03:49:03;9.10;;;4.97;;
31660;SDS011;18267;52.234;7.444;2023-03-13T03:51:29;13.82;;;4.53;;
31660;SDS011;18267;52.234;7.444;2023-03-13T03:53:54;13.60;;;5.28;;
31660;SDS011;18267;52.234;7.444;2023-03-13T03:56:20;14.23;;;6.00;;
31660;SDS011;18267;52.234;7.444;2023-03-13T03:58:45;18.00;;;7.22;;
31660;SDS011;18267;52.234;7.444;2023-03-13T04:01:11;16.42;;;7.60;;
31660;SDS011;18267;52.234;7.444;2023-03-13T04:03:37;13.38;;;7.13;;
31660;SDS011;18267;52.234;7.444;2023-03-13T04:06:03;18.38;;;7.38;;
31660;SDS011;18267;52.234;7.444;2023-03-13T04:08:30;15.88;;;8.05;;
31660;SDS011;18267;52.234;7.444;2023-03-13T04:10:56;20.45;;;8.18;;
31660;SDS011;18267;52.234;7.444;2023-03-13T04:13:24;16.92;;;9.23;;
31660;SDS011;18267;52.234;7.444;2023-03-13T04:15:49;24.13;;;10.32;;
31660;SDS011;18267;52.234;7.444;2023-03-13T04:18:15;18.50;;;10.73;;
31660;SDS011;18267;52.234;7.444;2023-03-13T04:20:42;20.88;;;10.88;;
31660;SDS011;18267;52.234;7.444;2023-03-13T04:23:07;24.40;;;10.48;;
31660;SDS011;18267;52.234;7.444;2023-03-13T04:25:33;22.77;;;10.60;;
31660;SDS011;18267;52.234;7.444;2023-03-13T04:27:58;23.60;;;11.05;;
31660;SDS011;18267;52.234;7.444;2023-03-13T04:30:24;24.92;;;10.90;;
31660;SDS011;18267;52.234;7.444;2023-03-13T04:32:49;19.95;;;11.40;;
31660;SDS011;18267;52.234;7.444;2023-03-13T04:35:15;18.75;;;10.00;;
31660;SDS011;18267;52.234;7.444;2023-03-13T04:37:42;22.92;;;10.88;;
31660;SDS011;18267;52.234;7.444;2023-03-13T04:40:08;18.70;;;10.77;;
31660;SDS011;18267;52.234;7.444;2023-03-13T04:42:33;20.23;;;9.95;;
31660;SDS011;18267;52.234;7.444;2023-03-13T04:44:59;17.40;;;8.23;;
31660;SDS011;18267;52.234;7.444;2023-03-13T04:47:24;12.38;;;8.88;;
31660;SDS011;18267;52.234;7.444;2023-03-13T04:49:50;14.98;;;8.45;;
31660;SDS011;18267;52.234;7.444;2023-03-13T04:52:16;12.93;;;7.18;;
31660;SDS011;18267;52.234;7.444;2023-03-13T04:54:41;14.27;;;6.88;;
31660;SDS011;18267;52.234;7.444;2023-03-13T04:57:07;9.68;;;5.50;;
31660;SDS011;18267;52.234;7.444;2023-03-13T04:59:32;7.43;;;5.85;;
31660;SDS011;18267;52.234;7.444;2023-03-13T05:01:58;9.57;;;4.75;;
31660;SDS011;18267;52.234;7.444;2023-03-13T05:04:24;8.48;;;4.82;;
31660;SDS011;18267;52.234;7.444;2023-03-13T05:06:49;6.97;;;4.38;;
31660;SDS011;18267;52.234;7.444;2023-03-13T05:09:16;8.02;;;4.70;;
31660;SDS011;18267;52.234;7.444;2023-03-13T05:11:43;6.85;;;3.60;;
31660;SDS011;18267;52.234;7.444;2023-03-13T05:14:09;7.07;;;3.67;;
31660;SDS011;18267;52.234;7.444;2023-03-13T05:16:35;4.40;;;3.60;;
31660;SDS011;18267;52.234;7.444;2023-03-13T05:19:02;5.47;;;3.72;;
31660;SDS011;18267;52.234;7.444;2023-03-13T05:21:27;5.45;;;3.55;;
31660;SDS011;18267;52.234;7.444;2023-03-13T05:23:53;6.15;;;4.03;;
31660;SDS011;18267;52.234;7.444;2023-03-13T05:26:18;8.88;;;4.40;;
31660;SDS011;18267;52.234;7.444;2023-03-13T05:28:44;5.88;;;4.00;;
31660;SDS011;18267;52.234;7.444;2023-03-13T05:31:09;5.53;;;4.00;;
31660;SDS011;18267;52.234;7.444;2023-03-13T05:33:35;5.93;;;3.78;;
31660;SDS011;18267;52.234;7.444;2023-03-13T05:36:01;10.38;;;4.53;;
31660;SDS011;18267;52.234;7.444;2023-03-13T05:38:26;7.15;;;4.38;;
31660;SDS011;18267;52.234;7.444;2023-03-13T05:40:52;6.53;;;3.70;;
31660;SDS011;18267;52.234;7.444;2023-03-13T05:43:17;10.07;;;4.25;;
31660;SDS011;18267;52.234;7.444;2023-03-13T05:45:43;6.03;;;3.70;;
31660;SDS011;18267;52.234;7.444;2023-03-13T05:48:08;4.28;;;3.50;;
31660;SDS011;18267;52.234;7.444;2023-03-13T05:50:39;5.65;;;4.22;;
31660;SDS011;18267;52.234;7.444;2023-03-13T05:53:05;5.68;;;3.13;;
31660;SDS011;18267;52.234;7.444;2023-03-13T05:55:31;5.03;;;3.60;;
31660;SDS011;18267;52.234;7.444;2023-03-13T05:57:56;8.98;;;3.97;;
31660;SDS011;18267;52.234;7.444;2023-03-13T06:00:23;11.43;;;4.18;;
31660;SDS011;18267;52.234;7.444;2023-03-13T06:02:48;8.30;;;3.83;;
31660;SDS011;18267;52.234;7.444;2023-03-13T06:05:20;8.48;;;4.25;;
31660;SDS011;18267;52.234;7.444;2023-03-13T06:07:46;6.25;;;3.60;;
31660;SDS011;18267;52.234;7.444;2023-03-13T06:10:14;6.30;;;4.43;;
31660;SDS011;18267;52.234;7.444;2023-03-13T06:12:39;8.55;;;4.63;;
31660;SDS011;18267;52.234;7.444;2023-03-13T06:15:05;7.60;;;4.80;;
31660;SDS011;18267;52.234;7.444;2023-03-13T06:17:33;9.48;;;4.32;;
31660;SDS011;18267;52.234;7.444;2023-03-13T06:19:59;10.63;;;5.15;;
31660;SDS011;18267;52.234;7.444;2023-03-13T06:22:24;5.97;;;4.38;;
31660;SDS011;18267;52.234;7.444;2023-03-13T06:24:50;6.32;;;4.57;;
31660;SDS011;18267;52.234;7.444;2023-03-13T06:27:16;11.88;;;5.25;;
31660;SDS011;18267;52.234;7.444;2023-03-13T06:29:41;10.98;;;5.07;;
31660;SDS011;18267;52.234;7.444;2023-03-13T06:32:07;11.13;;;5.20;;
31660;SDS011;18267;52.234;7.444;2023-03-13T06:34:33;9.30;;;5.55;;
31660;SDS011;18267;52.234;7.444;2023-03-13T06:36:58;13.98;;;5.28;;
31660;SDS011;18267;52.234;7.444;2023-03-13T06:39:24;7.57;;;5.47;;
31660;SDS011;18267;52.234;7.444;2023-03-13T06:41:50;12.65;;;5.55;;
31660;SDS011;18267;52.234;7.444;2023-03-13T06:44:17;8.85;;;4.82;;
31660;SDS011;18267;52.234;7.444;2023-03-13T06:46:43;9.25;;;4.03;;
31660;SDS011;18267;52.234;7.444;2023-03-13T06:49:09;11.98;;;5.55;;
31660;SDS011;18267;52.234;7.444;2023-03-13T06:51:34;14.35;;;5.00;;
31660;SDS011;18267;52.234;7.444;2023-03-13T06:54:00;8.60;;;4.57;;
31660;SDS011;18267;52.234;7.444;2023-03-13T06:56:27;9.35;;;5.90;;
31660;SDS011;18267;52.234;7.444;2023-03-13T06:58:52;9.55;;;5.00;;
31660;SDS011;18267;52.234;7.444;2023-03-13T07:01:18;7.63;;;4.53;;
31660;SDS011;18267;52.234;7.444;2023-03-13T07:03:44;8.80;;;4.55;;
31660;SDS011;18267;52.234;7.444;2023-03-13T07:06:11;7.70;;;5.35;;
31660;SDS011;18267;52.234;7.444;2023-03-13T07:08:37;8.43;;;4.82;;
31660;SDS011;18267;52.234;7.444;2023-03-13T07:11:05;12.10;;;4.80;;
31660;SDS011;18267;52.234;7.444;2023-03-13T07:13:33;11.68;;;4.90;;
31660;SDS011;18267;52.234;7.444;2023-03-13T07:16:06;10.88;;;4.90;;
31660;SDS011;18267;52.234;7.444;2023-03-13T07:18:33;5.93;;;3.90;;
31660;SDS011;18267;52.234;7.444;2023-03-13T07:21:00;12.00;;;4.63;;
31660;SDS011;18267;52.234;7.444;2023-03-13T07:23:31;10.48;;;4.50;;
31660;SDS011;18267;52.234;7.444;2023-03-13T07:25:59;7.88;;;4.00;;
31660;SDS011;18267;52.234;7.444;2023-03-13T07:28:26;10.40;;;4.38;;
31660;SDS011;18267;52.234;7.444;2023-03-13T07:30:53;9.93;;;3.72;;
31660;SDS011;18267;52.234;7.444;2023-03-13T07:33:19;6.85;;;3.97;;
31660;SDS011;18267;52.234;7.444;2023-03-13T07:35:48;6.93;;;3.20;;
31660;SDS011;18267;52.234;7.444;2023-03-13T07:38:17;13.43;;;4.13;;
31660;SDS011;18267;52.234;7.444;2023-03-13T07:40:50;10.15;;;3.63;;
31660;SDS011;18267;52.234;7.444;2023-03-13T07:43:19;5.10;;;3.17;;
31660;SDS011;18267;52.234;7.444;2023-03-13T07:45:59;5.93;;;3.35;;
31660;SDS011;18267;52.234;7.444;2023-03-13T07:48:30;8.65;;;3.67;;
31660;SDS011;18267;52.234;7.444;2023-03-13T07:50:57;5.65;;;2.97;;
31660;SDS011;18267;52.234;7.444;2023-03-13T07:53:24;12.15;;;3.05;;
31660;SDS011;18267;52.234;7.444;2023-03-13T07:55:51;6.28;;;3.35;;
31660;SDS011;18267;52.234;7.444;2023-03-13T07:58:21;6.35;;;2.92;;
31660;SDS011;18267;52.234;7.444;2023-03-13T08:00:48;6.25;;;3.22;;
31660;SDS011;18267;52.234;7.444;2023-03-13T08:03:14;6.85;;;2.88;;
31660;SDS011;18267;52.234;7.444;2023-03-13T08:05:39;8.35;;;3.42;;
31660;SDS011;18267;52.234;7.444;2023-03-13T08:08:05;12.77;;;2.85;;
31660;SDS011;18267;52.234;7.444;2023-03-13T08:10:31;5.07;;;2.58;;
31660;SDS011;18267;52.234;7.444;2023-03-13T08:12:56;8.60;;;2.97;;
31660;SDS011;18267;52.234;7.444;2023-03-13T08:15:22;10.57;;;3.08;;
31660;SDS011;18267;52.234;7.444;2023-03-13T08:17:50;6.93;;;2.80;;
31660;SDS011;18267;52.234;7.444;2023-03-13T08:20:19;11.52;;;2.83;;
31660;SDS011;18267;52.234;7.444;2023-03-13T08:22:44;5.18;;;2.13;;
31660;SDS011;18267;52.234;7.444;2023-03-13T08:25:10;4.25;;;2.80;;
31660;SDS011;18267;52.234;7.444;2023-03-13T08:27:36;5.85;;;2.40;;
31660;SDS011;18267;52.234;7.444;2023-03-13T08:30:02;5.85;;;2.90;;
31660;SDS011;18267;52.234;7.444;2023-03-13T08:32:28;5.50;;;2.42;;
31660;SDS011;18267;52.234;7.444;2023-03-13T08:34:57;7.10;;;2.60;;
31660;SDS011;18267;52.234;7.444;2023-03-13T08:37:22;6.15;;;2.40;;
31660;SDS011;18267;52.234;7.444;2023-03-13T08:39:48;8.95;;;2.38;;
31660;SDS011;18267;52.234;7.444;2023-03-13T08:42:14;6.43;;;2.67;;
31660;SDS011;18267;52.234;7.444;2023-03-13T08:44:39;6.18;;;2.22;;
31660;SDS011;18267;52.234;7.444;2023-03-13T08:47:05;6.40;;;2.30;;
31660;SDS011;18267;52.234;7.444;2023-03-13T08:49:31;5.55;;;2.10;;
31660;SDS011;18267;52.234;7.444;2023-03-13T08:51:57;14.30;;;3.10;;
31660;SDS011;18267;52.234;7.444;2023-03-13T08:54:24;6.03;;;1.92;;
31660;SDS011;18267;52.234;7.444;2023-03-13T08:56:50;7.47;;;2.42;;
31660;SDS011;18267;52.234;7.444;2023-03-13T08:59:16;5.22;;;1.95;;
31660;SDS011;18267;52.234;7.444;2023-03-13T09:01:41;11.65;;;2.10;;
31660;SDS011;18267;52.234;7.444;2023-03-13T09:04:07;9.93;;;2.15;;
31660;SDS011;18267;52.234;7.444;2023-03-13T09:06:33;8.90;;;2.40;;
31660;SDS011;18267;52.234;7.444;2023-03-13T09:09:00;7.45;;;2.20;;
31660;SDS011;18267;52.234;7.444;2023-03-13T09:11:26;7.60;;;2.45;;
31660;SDS011;18267;52.234;7.444;2023-03-13T09:13:53;6.53;;;1.95;;
31660;SDS011;18267;52.234;7.444;2023-03-13T09:16:20;9.82;;;2.05;;
31660;SDS011;18267;52.234;7.444;2023-03-13T09:18:47;7.68;;;2.20;;
31660;SDS011;18267;52.234;7.444;2023-03-13T09:21:15;3.08;;;1.92;;
31660;SDS011;18267;52.234;7.444;2023-03-13T09:23:44;8.63;;;2.08;;
31660;SDS011;18267;52.234;7.444;2023-03-13T09:26:11;5.60;;;2.00;;
31660;SDS011;18267;52.234;7.444;2023-03-13T09:28:37;8.65;;;2.92;;
31660;SDS011;18267;52.234;7.444;2023-03-13T09:31:13;8.93;;;1.75;;
31660;SDS011;18267;52.234;7.444;2023-03-13T09:33:40;3.85;;;1.63;;
31660;SDS011;18267;52.234;7.444;2023-03-13T09:36:07;13.05;;;1.75;;
31660;SDS011;18267;52.234;7.444;2023-03-13T09:38:34;6.38;;;1.58;;
31660;SDS011;18267;52.234;7.444;2023-03-13T09:41:22;4.85;;;1.70;;
31660;SDS011;18267;52.234;7.444;2023-03-13T09:44:00;7.90;;;1.42;;
31660;SDS011;18267;52.234;7.444;2023-03-13T09:46:43;3.70;;;2.10;;
31660;SDS011;18267;52.234;7.444;2023-03-13T09:49:30;9.27;;;1.90;;
31660;SDS011;18267;52.234;7.444;2023-03-13T09:52:20;4.35;;;1.80;;
31660;SDS011;18267;52.234;7.444;2023-03-13T09:54:56;7.78;;;1.90;;
31660;SDS011;18267;52.234;7.444;2023-03-13T09:57:27;10.82;;;2.00;;
31660;SDS011;18267;52.234;7.444;2023-03-13T10:00:12;7.57;;;1.60;;
31660;SDS011;18267;52.234;7.444;2023-03-13T10:02:45;9.27;;;1.87;;
31660;SDS011;18267;52.234;7.444;2023-03-13T10:05:21;3.40;;;1.70;;
31660;SDS011;18267;52.234;7.444;2023-03-13T10:07:49;5.68;;;2.20;;
31660;SDS011;18267;52.234;7.444;2023-03-13T10:11:00;5.70;;;1.73;;
31660;SDS011;18267;52.234;7.444;2023-03-13T10:13:12;13.73;;;2.25;;
31660;SDS011;18267;52.234;7.444;2023-03-13T10:15:57;4.35;;;1.63;;
31660;SDS011;18267;52.234;7.444;2023-03-13T10:18:25;2.20;;;1.10;;
31660;SDS011;18267;52.234;7.444;2023-03-13T10:20:53;3.85;;;1.40;;
31660;SDS011;18267;52.234;7.444;2023-03-13T10:23:37;4.35;;;1.77;;
31660;SDS011;18267;52.234;7.444;2023-03-13T10:26:05;6.75;;;1.17;;
31660;SDS011;18267;52.234;7.444;2023-03-13T10:28:40;3.03;;;1.17;;
31660;SDS011;18267;52.234;7.444;2023-03-13T10:31:07;3.72;;;1.40;;
31660;SDS011;18267;52.234;7.444;2023-03-13T10:33:43;2.58;;;1.35;;
31660;SDS011;18267;52.234;7.444;2023-03-13T10:36:10;4.68;;;1.50;;
31660;SDS011;18267;52.234;7.444;2023-03-13T10:38:45;11.15;;;2.10;;
31660;SDS011;18267;52.234;7.444;2023-03-13T10:41:24;6.80;;;1.50;;
31660;SDS011;18267;52.234;7.444;2023-03-13T10:44:14;7.57;;;1.65;;
31660;SDS011;18267;52.234;7.444;2023-03-13T10:46:42;5.75;;;1.60;;
31660;SDS011;18267;52.234;7.444;2023-03-13T10:49:15;3.42;;;1.33;;
31660;SDS011;18267;52.234;7.444;2023-03-13T10:51:47;9.80;;;1.65;;
31660;SDS011;18267;52.234;7.444;2023-03-13T10:54:18;6.43;;;1.55;;
31660;SDS011;18267;52.234;7.444;2023-03-13T10:56:45;2.25;;;1.85;;
31660;SDS011;18267;52.234;7.444;2023-03-13T10:59:29;7.50;;;1.55;;
31660;SDS011;18267;52.234;7.444;2023-03-13T11:01:57;4.30;;;1.60;;
31660;SDS011;18267;52.234;7.444;2023-03-13T11:04:32;3.38;;;1.48;;
31660;SDS011;18267;52.234;7.444;2023-03-13T11:07:03;5.75;;;1.33;;
31660;SDS011;18267;52.234;7.444;2023-03-13T11:09:31;5.57;;;1.00;;
31660;SDS011;18267;52.234;7.444;2023-03-13T11:12:08;1.50;;;0.95;;
31660;SDS011;18267;52.234;7.444;2023-03-13T11:14:39;3.40;;;1.00;;
31660;SDS011;18267;52.234;7.444;2023-03-13T11:22:52;2.05;;;0.85;;
31660;SDS011;18267;52.234;7.444;2023-03-13T11:31:00;3.13;;;0.90;;
31660;SDS011;18267;52.234;7.444;2023-03-13T11:41:44;2.75;;;0.90;;
31660;SDS011;18267;52.234;7.444;2023-03-13T11:50:17;1.45;;;0.93;;
31660;SDS011;18267;52.234;7.444;2023-03-13T11:55:17;3.40;;;0.77;;
31660;SDS011;18267;52.234;7.444;2023-03-13T12:00:40;1.73;;;0.93;;
31660;SDS011;18267;52.234;7.444;2023-03-13T12:03:19;2.20;;;1.10;;
31660;SDS011;18267;52.234;7.444;2023-03-13T12:05:55;1.98;;;0.60;;
31660;SDS011;18267;52.234;7.444;2023-03-13T12:08:25;3.17;;;0.80;;
31660;SDS011;18267;52.234;7.444;2023-03-13T12:10:57;3.92;;;1.10;;
31660;SDS011;18267;52.234;7.444;2023-03-13T12:13:37;2.30;;;0.88;;
31660;SDS011;18267;52.234;7.444;2023-03-13T12:16:08;2.85;;;1.15;;
31660;SDS011;18267;52.234;7.444;2023-03-13T12:18:47;3.70;;;0.80;;
31660;SDS011;18267;52.234;7.444;2023-03-13T12:21:22;2.05;;;0.70;;
31660;SDS011;18267;52.234;7.444;2023-03-13T12:24:52;1.20;;;0.77;;
31660;SDS011;18267;52.234;7.444;2023-03-13T12:27:10;1.27;;;0.60;;
31660;SDS011;18267;52.234;7.444;2023-03-13T12:29:52;2.20;;;0.70;;
31660;SDS011;18267;52.234;7.444;2023-03-13T12:32:24;6.07;;;0.70;;
31660;SDS011;18267;52.234;7.444;2023-03-13T12:34:59;1.15;;;0.88;;
31660;SDS011;18267;52.234;7.444;2023-03-13T12:37:51;1.88;;;0.70;;
31660;SDS011;18267;52.234;7.444;2023-03-13T12:45:46;5.40;;;0.95;;
31660;SDS011;18267;52.234;7.444;2023-03-13T12:59:26;1.83;;;0.77;;
31660;SDS011;18267;52.234;7.444;2023-03-13T13:02:00;1.35;;;0.63;;
31660;SDS011;18267;52.234;7.444;2023-03-13T13:04:29;1.20;;;0.82;;
31660;SDS011;18267;52.234;7.444;2023-03-13T13:09:37;3.22;;;0.80;;
31660;SDS011;18267;52.234;7.444;2023-03-13T13:12:23;2.47;;;0.77;;
31660;SDS011;18267;52.234;7.444;2023-03-13T13:17:26;2.97;;;0.55;;
31660;SDS011;18267;52.234;7.444;2023-03-13T13:22:50;2.38;;;0.55;;
31660;SDS011;18267;52.234;7.444;2023-03-13T13:25:33;1.65;;;0.80;;
31660;SDS011;18267;52.234;7.444;2023-03-13T13:30:59;6.13;;;0.70;;
31660;SDS011;18267;52.234;7.444;2023-03-13T13:33:46;3.50;;;0.82;;
31660;SDS011;18267;52.234;7.444;2023-03-13T13:38:45;0.98;;;0.63;;
31660;SDS011;18267;52.234;7.444;2023-03-13T13:43:37;3.25;;;0.60;;
31660;SDS011;18267;52.234;7.444;2023-03-13T13:46:43;2.15;;;0.70;;
31660;SDS011;18267;52.234;7.444;2023-03-13T13:49:13;1.35;;;0.68;;
31660;SDS011;18267;52.234;7.444;2023-03-13T13:51:41;1.23;;;0.80;;
31660;SDS011;18267;52.234;7.444;2023-03-13T13:54:31;3.38;;;0.80;;
31660;SDS011;18267;52.234;7.444;2023-03-13T13:57:06;4.57;;;0.75;;
31660;SDS011;18267;52.234;7.444;2023-03-13T13:59:39;2.53;;;0.90;;
31660;SDS011;18267;52.234;7.444;2023-03-13T14:04:42;1.95;;;1.00;;
31660;SDS011;18267;52.234;7.444;2023-03-13T14:07:11;1.38;;;0.73;;
31660;SDS011;18267;52.234;7.444;2023-03-13T14:12:44;3.65;;;0.88;;
31660;SDS011;18267;52.234;7.444;2023-03-13T14:20:25;2.13;;;0.80;;
31660;SDS011;18267;52.234;7.444;2023-03-13T14:22:59;1.65;;;0.75;;
31660;SDS011;18267;52.234;7.444;2023-03-13T14:25:27;1.23;;;0.70;;
31660;SDS011;18267;52.234;7.444;2023-03-13T14:28:05;1.85;;;0.60;;
31660;SDS011;18267;52.234;7.444;2023-03-13T14:30:43;5.30;;;0.73;;
31660;SDS011;18267;52.234;7.444;2023-03-13T14:33:10;0.70;;;0.52;;
31660;SDS011;18267;52.234;7.444;2023-03-13T14:35:36;4.35;;;0.93;;
31660;SDS011;18267;52.234;7.444;2023-03-13T14:38:02;0.50;;;0.50;;
31660;SDS011;18267;52.234;7.444;2023-03-13T14:40:29;1.85;;;0.65;;
31660;SDS011;18267;52.234;7.444;2023-03-13T14:42:57;2.28;;;0.65;;
31660;SDS011;18267;52.234;7.444;2023-03-13T14:47:54;0.88;;;0.70;;
31660;SDS011;18267;52.234;7.444;2023-03-13T14:50:29;2.97;;;0.75;;
31660;SDS011;18267;52.234;7.444;2023-03-13T14:53:37;1.35;;;0.60;;
31660;SDS011;18267;52.234;7.444;2023-03-13T14:55:46;0.63;;;0.40;;
31660;SDS011;18267;52.234;7.444;2023-03-13T15:00:44;2.05;;;0.82;;
31660;SDS011;18267;52.234;7.444;2023-03-13T15:05:39;3.75;;;0.60;;
31660;SDS011;18267;52.234;7.444;2023-03-13T15:10:42;1.60;;;0.68;;
31660;SDS011;18267;52.234;7.444;2023-03-13T15:13:15;0.38;;;0.38;;
31660;SDS011;18267;52.234;7.444;2023-03-13T15:15:44;0.80;;;0.60;;
31660;SDS011;18267;52.234;7.444;2023-03-13T15:18:27;1.23;;;0.60;;
31660;SDS011;18267;52.234;7.444;2023-03-13T15:20:56;4.22;;;0.82;;
31660;SDS011;18267;52.234;7.444;2023-03-13T15:23:37;1.77;;;0.75;;
31660;SDS011;18267;52.234;7.444;2023-03-13T15:26:03;1.15;;;0.60;;
31660;SDS011;18267;52.234;7.444;2023-03-13T15:28:29;0.77;;;0.43;;
31660;SDS011;18267;52.234;7.444;2023-03-13T15:30:56;1.95;;;0.57;;
31660;SDS011;18267;52.234;7.444;2023-03-13T15:33:22;3.00;;;0.82;;
31660;SDS011;18267;52.234;7.444;2023-03-13T15:35:51;2.70;;;0.50;;
31660;SDS011;18267;52.234;7.444;2023-03-13T15:38:18;3.08;;;0.47;;
31660;SDS011;18267;52.234;7.444;2023-03-13T15:40:46;0.88;;;0.55;;
31660;SDS011;18267;52.234;7.444;2023-03-13T15:43:12;0.95;;;0.50;;
31660;SDS011;18267;52.234;7.444;2023-03-13T15:45:39;1.38;;;0.60;;
31660;SDS011;18267;52.234;7.444;2023-03-13T15:48:17;3.05;;;0.93;;
31660;SDS011;18267;52.234;7.444;2023-03-13T15:50:45;0.90;;;0.55;;
31660;SDS011;18267;52.234;7.444;2023-03-13T15:53:18;1.05;;;0.40;;
31660;SDS011;18267;52.234;7.444;2023-03-13T15:55:46;1.05;;;0.50;;
31660;SDS011;18267;52.234;7.444;2023-03-13T15:58:12;2.20;;;0.63;;
31660;SDS011;18267;52.234;7.444;2023-03-13T16:00:39;2.15;;;0.60;;
31660;SDS011;18267;52.234;7.444;2023-03-13T16:03:08;1.35;;;0.55;;
31660;SDS011;18267;52.234;7.444;2023-03-13T16:05:39;2.50;;;1.00;;
31660;SDS011;18267;52.234;7.444;2023-03-13T16:08:05;2.47;;;0.63;;
31660;SDS011;18267;52.234;7.444;2023-03-13T16:10:31;3.70;;;0.40;;
31660;SDS011;18267;52.234;7.444;2023-03-13T16:12:57;3.05;;;0.32;;
31660;SDS011;18267;52.234;7.444;2023-03-13T16:15:23;6.20;;;0.60;;
31660;SDS011;18267;52.234;7.444;2023-03-13T16:17:48;3.60;;;0.80;;
31660;SDS011;18267;52.234;7.444;2023-03-13T16:20:18;3.70;;;0.60;;
31660;SDS011;18267;52.234;7.444;2023-03-13T16:22:45;2.65;;;0.60;;
31660;SDS011;18267;52.234;7.444;2023-03-13T16:25:12;4.20;;;0.40;;